sensor_id;sensor_type;location;lat;lon;timestamp;temperature;humidity
6666;DHT22;3369;49.906;8.598;2022-08-19T00:01:25;20.60;99.90
6666;DHT22;3369;49.906;8.598;2022-08-19T00:03:51;20.60;99.90
6666;DHT22;3369;49.906;8.598;2022-08-19T00:06:17;20.60;99.90
6666;DHT22;3369;49.906;8.598;2022-08-19T00:08:43;20.60;99.90
6666;DHT22;3369;49.906;8.598;2022-08-19T00:11:09;20.60;99.90
6666;DHT22;3369;49.906;8.598;2022-08-19T00:13:35;20.60;99.90
6666;DHT22;3369;49.906;8.598;2022-08-19T00:16:01;20.60;99.90
6666;DHT22;3369;49.906;8.598;2022-08-19T00:18:27;20.70;99.90
6666;DHT22;3369;49.906;8.598;2022-08-19T00:20:53;20.70;99.90
6666;DHT22;3369;49.906;8.598;2022-08-19T00:23:19;20.70;99.90
6666;DHT22;3369;49.906;8.598;2022-08-19T00:25:45;20.70;99.90
6666;DHT22;3369;49.906;8.598;2022-08-19T00:28:10;20.70;99.90
6666;DHT22;3369;49.906;8.598;2022-08-19T00:30:36;20.70;99.90
6666;DHT22;3369;49.906;8.598;2022-08-19T00:33:02;20.70;99.90
6666;DHT22;3369;49.906;8.598;2022-08-19T00:35:28;20.70;99.90
6666;DHT22;3369;49.906;8.598;2022-08-19T00:37:54;20.70;99.90
6666;DHT22;3369;49.906;8.598;2022-08-19T00:40:20;20.60;99.90
6666;DHT22;3369;49.906;8.598;2022-08-19T00:42:46;20.60;99.90
6666;DHT22;3369;49.906;8.598;2022-08-19T00:45:16;20.60;99.90
6666;DHT22;3369;49.906;8.598;2022-08-19T00:47:43;20.60;99.90
6666;DHT22;3369;49.906;8.598;2022-08-19T00:50:11;20.60;99.90
6666;DHT22;3369;49.906;8.598;2022-08-19T00:52:43;20.60;99.90
6666;DHT22;3369;49.906;8.598;2022-08-19T00:55:22;20.60;99.90
6666;DHT22;3369;49.906;8.598;2022-08-19T00:57:53;20.60;99.90
6666;DHT22;3369;49.906;8.598;2022-08-19T01:00:21;20.60;99.90
6666;DHT22;3369;49.906;8.598;2022-08-19T01:02:47;20.60;99.90
6666;DHT22;3369;49.906;8.598;2022-08-19T01:05:17;20.60;99.90
6666;DHT22;3369;49.906;8.598;2022-08-19T01:07:47;20.60;99.90
6666;DHT22;3369;49.906;8.598;2022-08-19T01:10:17;20.60;99.90
6666;DHT22;3369;49.906;8.598;2022-08-19T01:12:45;20.60;99.90
6666;DHT22;3369;49.906;8.598;2022-08-19T01:15:13;20.60;99.90
6666;DHT22;3369;49.906;8.598;2022-08-19T01:17:41;20.60;99.90
6666;DHT22;3369;49.906;8.598;2022-08-19T01:20:11;20.60;99.90
6666;DHT22;3369;49.906;8.598;2022-08-19T01:22:49;20.60;99.90
6666;DHT22;3369;49.906;8.598;2022-08-19T01:25:17;20.60;99.90
6666;DHT22;3369;49.906;8.598;2022-08-19T01:27:46;20.50;99.90
6666;DHT22;3369;49.906;8.598;2022-08-19T01:30:21;20.60;99.90
6666;DHT22;3369;49.906;8.598;2022-08-19T01:32:48;20.50;99.90
6666;DHT22;3369;49.906;8.598;2022-08-19T01:35:14;20.50;99.90
6666;DHT22;3369;49.906;8.598;2022-08-19T01:57:19;20.30;99.90
6666;DHT22;3369;49.906;8.598;2022-08-19T01:59:45;20.30;99.90
6666;DHT22;3369;49.906;8.598;2022-08-19T02:02:11;20.30;99.90
6666;DHT22;3369;49.906;8.598;2022-08-19T02:04:37;20.30;99.90
6666;DHT22;3369;49.906;8.598;2022-08-19T02:07:04;20.30;99.90
6666;DHT22;3369;49.906;8.598;2022-08-19T02:09:31;20.30;99.90
6666;DHT22;3369;49.906;8.598;2022-08-19T02:11:57;20.30;99.90
6666;DHT22;3369;49.906;8.598;2022-08-19T02:14:23;20.30;99.90
6666;DHT22;3369;49.906;8.598;2022-08-19T02:16:49;20.30;99.90
6666;DHT22;3369;49.906;8.598;2022-08-19T02:19:14;20.30;99.90
6666;DHT22;3369;49.906;8.598;2022-08-19T02:21:40;20.20;99.90
6666;DHT22;3369;49.906;8.598;2022-08-19T02:24:05;20.20;99.90
6666;DHT22;3369;49.906;8.598;2022-08-19T02:26:32;20.20;99.90
6666;DHT22;3369;49.906;8.598;2022-08-19T02:28:58;20.20;99.90
6666;DHT22;3369;49.906;8.598;2022-08-19T02:31:25;20.20;99.90
6666;DHT22;3369;49.906;8.598;2022-08-19T02:33:51;20.20;99.90
6666;DHT22;3369;49.906;8.598;2022-08-19T02:36:18;20.10;99.90
6666;DHT22;3369;49.906;8.598;2022-08-19T02:38:44;20.10;99.90
6666;DHT22;3369;49.906;8.598;2022-08-19T02:41:21;20.10;99.90
6666;DHT22;3369;49.906;8.598;2022-08-19T02:43:48;20.10;99.90
6666;DHT22;3369;49.906;8.598;2022-08-19T02:46:23;20.10;99.90
6666;DHT22;3369;49.906;8.598;2022-08-19T02:48:56;20.10;99.90
6666;DHT22;3369;49.906;8.598;2022-08-19T02:51:25;20.10;99.90
6666;DHT22;3369;49.906;8.598;2022-08-19T02:53:51;20.00;99.90
6666;DHT22;3369;49.906;8.598;2022-08-19T02:56:18;20.00;99.90
6666;DHT22;3369;49.906;8.598;2022-08-19T02:58:44;20.00;99.90
6666;DHT22;3369;49.906;8.598;2022-08-19T03:01:10;20.00;99.90
6666;DHT22;3369;49.906;8.598;2022-08-19T03:03:37;20.00;99.90
6666;DHT22;3369;49.906;8.598;2022-08-19T03:06:14;20.00;99.90
6666;DHT22;3369;49.906;8.598;2022-08-19T03:08:42;20.00;99.90
6666;DHT22;3369;49.906;8.598;2022-08-19T03:11:24;20.00;99.90
6666;DHT22;3369;49.906;8.598;2022-08-19T03:13:50;20.00;99.90
6666;DHT22;3369;49.906;8.598;2022-08-19T03:16:18;20.00;99.90
6666;DHT22;3369;49.906;8.598;2022-08-19T03:18:44;20.10;99.90
6666;DHT22;3369;49.906;8.598;2022-08-19T03:21:18;20.00;99.90
6666;DHT22;3369;49.906;8.598;2022-08-19T03:23:44;20.00;99.90
6666;DHT22;3369;49.906;8.598;2022-08-19T03:26:10;20.00;99.90
6666;DHT22;3369;49.906;8.598;2022-08-19T03:28:36;20.00;99.90
6666;DHT22;3369;49.906;8.598;2022-08-19T03:31:09;20.00;99.90
6666;DHT22;3369;49.906;8.598;2022-08-19T03:33:36;20.00;99.90
6666;DHT22;3369;49.906;8.598;2022-08-19T03:38:28;19.90;99.90
6666;DHT22;3369;49.906;8.598;2022-08-19T03:40:53;19.90;99.90
6666;DHT22;3369;49.906;8.598;2022-08-19T03:43:19;19.90;99.90
6666;DHT22;3369;49.906;8.598;2022-08-19T03:45:44;19.90;99.90
6666;DHT22;3369;49.906;8.598;2022-08-19T03:48:10;19.90;99.90
6666;DHT22;3369;49.906;8.598;2022-08-19T03:50:39;19.80;99.90
6666;DHT22;3369;49.906;8.598;2022-08-19T03:53:06;19.90;99.90
6666;DHT22;3369;49.906;8.598;2022-08-19T03:55:32;19.80;99.90
6666;DHT22;3369;49.906;8.598;2022-08-19T03:57:58;19.80;99.90
6666;DHT22;3369;49.906;8.598;2022-08-19T04:00:23;19.80;99.90
6666;DHT22;3369;49.906;8.598;2022-08-19T04:02:49;19.80;99.90
6666;DHT22;3369;49.906;8.598;2022-08-19T04:05:15;19.70;99.90
6666;DHT22;3369;49.906;8.598;2022-08-19T04:07:40;19.80;99.90
6666;DHT22;3369;49.906;8.598;2022-08-19T04:10:06;19.70;99.90
6666;DHT22;3369;49.906;8.598;2022-08-19T04:12:32;19.80;99.90
6666;DHT22;3369;49.906;8.598;2022-08-19T04:14:57;19.70;99.90
6666;DHT22;3369;49.906;8.598;2022-08-19T04:17:24;19.70;99.90
6666;DHT22;3369;49.906;8.598;2022-08-19T04:19:49;19.70;99.90
6666;DHT22;3369;49.906;8.598;2022-08-19T04:22:15;19.70;99.90
6666;DHT22;3369;49.906;8.598;2022-08-19T04:24:41;19.70;99.90
6666;DHT22;3369;49.906;8.598;2022-08-19T04:27:06;19.70;99.90
6666;DHT22;3369;49.906;8.598;2022-08-19T04:29:33;19.70;99.90
6666;DHT22;3369;49.906;8.598;2022-08-19T04:31:59;19.60;99.90
6666;DHT22;3369;49.906;8.598;2022-08-19T04:34:26;19.60;99.90
6666;DHT22;3369;49.906;8.598;2022-08-19T04:36:54;19.60;99.90
6666;DHT22;3369;49.906;8.598;2022-08-19T04:39:24;19.60;99.90
6666;DHT22;3369;49.906;8.598;2022-08-19T04:42:10;19.50;99.90
6666;DHT22;3369;49.906;8.598;2022-08-19T04:44:54;19.50;99.90
6666;DHT22;3369;49.906;8.598;2022-08-19T04:47:20;19.50;99.90
6666;DHT22;3369;49.906;8.598;2022-08-19T04:49:45;19.40;99.90
6666;DHT22;3369;49.906;8.598;2022-08-19T04:52:11;19.40;99.90
6666;DHT22;3369;49.906;8.598;2022-08-19T04:54:37;19.30;99.90
6666;DHT22;3369;49.906;8.598;2022-08-19T04:57:03;19.30;99.90
6666;DHT22;3369;49.906;8.598;2022-08-19T04:59:30;19.30;99.90
6666;DHT22;3369;49.906;8.598;2022-08-19T05:01:56;19.30;99.90
6666;DHT22;3369;49.906;8.598;2022-08-19T05:04:21;19.30;99.90
6666;DHT22;3369;49.906;8.598;2022-08-19T05:06:48;19.30;99.90
6666;DHT22;3369;49.906;8.598;2022-08-19T05:09:14;19.30;99.90
6666;DHT22;3369;49.906;8.598;2022-08-19T05:11:41;19.30;99.90
6666;DHT22;3369;49.906;8.598;2022-08-19T05:14:07;19.30;99.90
6666;DHT22;3369;49.906;8.598;2022-08-19T05:16:34;19.30;99.90
6666;DHT22;3369;49.906;8.598;2022-08-19T05:18:59;19.30;99.90
6666;DHT22;3369;49.906;8.598;2022-08-19T05:21:44;19.30;99.90
6666;DHT22;3369;49.906;8.598;2022-08-19T05:24:29;19.30;99.90
6666;DHT22;3369;49.906;8.598;2022-08-19T05:26:55;19.30;99.90
6666;DHT22;3369;49.906;8.598;2022-08-19T05:29:26;19.40;99.90
6666;DHT22;3369;49.906;8.598;2022-08-19T05:31:53;19.40;99.90
6666;DHT22;3369;49.906;8.598;2022-08-19T05:34:21;19.40;99.90
6666;DHT22;3369;49.906;8.598;2022-08-19T05:36:49;19.50;99.90
6666;DHT22;3369;49.906;8.598;2022-08-19T05:39:19;19.50;99.90
6666;DHT22;3369;49.906;8.598;2022-08-19T05:41:48;19.50;99.90
6666;DHT22;3369;49.906;8.598;2022-08-19T05:44:15;19.60;99.90
6666;DHT22;3369;49.906;8.598;2022-08-19T05:46:44;19.60;99.90
6666;DHT22;3369;49.906;8.598;2022-08-19T05:49:13;19.70;99.90
6666;DHT22;3369;49.906;8.598;2022-08-19T05:51:39;19.70;99.90
6666;DHT22;3369;49.906;8.598;2022-08-19T05:54:06;19.70;99.90
6666;DHT22;3369;49.906;8.598;2022-08-19T05:56:34;19.80;99.90
6666;DHT22;3369;49.906;8.598;2022-08-19T05:59:07;19.80;99.90
6666;DHT22;3369;49.906;8.598;2022-08-19T06:01:36;19.80;99.90
6666;DHT22;3369;49.906;8.598;2022-08-19T06:04:02;19.90;99.90
6666;DHT22;3369;49.906;8.598;2022-08-19T06:06:28;19.90;99.90
6666;DHT22;3369;49.906;8.598;2022-08-19T06:08:54;20.00;99.90
6666;DHT22;3369;49.906;8.598;2022-08-19T06:11:23;20.00;99.90
6666;DHT22;3369;49.906;8.598;2022-08-19T06:13:52;20.10;99.90
6666;DHT22;3369;49.906;8.598;2022-08-19T06:16:22;20.10;99.90
6666;DHT22;3369;49.906;8.598;2022-08-19T06:18:52;20.20;99.90
6666;DHT22;3369;49.906;8.598;2022-08-19T06:21:23;20.30;99.90
6666;DHT22;3369;49.906;8.598;2022-08-19T06:23:50;20.30;99.90
6666;DHT22;3369;49.906;8.598;2022-08-19T06:26:17;20.40;99.90
6666;DHT22;3369;49.906;8.598;2022-08-19T06:28:44;20.50;99.90
6666;DHT22;3369;49.906;8.598;2022-08-19T06:31:17;20.60;99.90
6666;DHT22;3369;49.906;8.598;2022-08-19T06:33:44;20.70;99.90
6666;DHT22;3369;49.906;8.598;2022-08-19T06:36:35;20.80;99.90
6666;DHT22;3369;49.906;8.598;2022-08-19T06:39:07;21.00;99.90
6666;DHT22;3369;49.906;8.598;2022-08-19T06:41:38;21.00;99.90
6666;DHT22;3369;49.906;8.598;2022-08-19T06:44:05;21.20;99.90
6666;DHT22;3369;49.906;8.598;2022-08-19T06:46:31;21.20;99.90
6666;DHT22;3369;49.906;8.598;2022-08-19T06:48:58;21.30;99.90
6666;DHT22;3369;49.906;8.598;2022-08-19T06:51:24;21.40;99.90
6666;DHT22;3369;49.906;8.598;2022-08-19T06:53:52;21.50;99.90
6666;DHT22;3369;49.906;8.598;2022-08-19T06:56:21;21.60;99.90
6666;DHT22;3369;49.906;8.598;2022-08-19T06:58:47;21.70;99.90
6666;DHT22;3369;49.906;8.598;2022-08-19T07:01:16;21.80;99.90
6666;DHT22;3369;49.906;8.598;2022-08-19T07:03:42;21.80;99.90
6666;DHT22;3369;49.906;8.598;2022-08-19T07:06:12;21.80;99.90
6666;DHT22;3369;49.906;8.598;2022-08-19T07:08:40;21.90;99.90
6666;DHT22;3369;49.906;8.598;2022-08-19T07:11:07;22.00;99.90
6666;DHT22;3369;49.906;8.598;2022-08-19T07:13:34;22.10;99.90
6666;DHT22;3369;49.906;8.598;2022-08-19T07:16:13;22.10;99.90
6666;DHT22;3369;49.906;8.598;2022-08-19T07:18:39;22.20;99.90
6666;DHT22;3369;49.906;8.598;2022-08-19T07:21:11;22.30;99.90
6666;DHT22;3369;49.906;8.598;2022-08-19T07:23:37;22.30;99.90
6666;DHT22;3369;49.906;8.598;2022-08-19T07:26:16;22.40;99.90
6666;DHT22;3369;49.906;8.598;2022-08-19T07:28:43;22.50;99.90
6666;DHT22;3369;49.906;8.598;2022-08-19T07:31:15;22.60;99.90
6666;DHT22;3369;49.906;8.598;2022-08-19T07:33:45;22.70;99.90
6666;DHT22;3369;49.906;8.598;2022-08-19T07:36:11;22.80;99.90
6666;DHT22;3369;49.906;8.598;2022-08-19T07:38:40;22.90;99.70
6666;DHT22;3369;49.906;8.598;2022-08-19T07:41:07;23.00;99.70
6666;DHT22;3369;49.906;8.598;2022-08-19T07:43:33;23.10;99.50
6666;DHT22;3369;49.906;8.598;2022-08-19T07:45:58;23.20;99.00
6666;DHT22;3369;49.906;8.598;2022-08-19T07:48:25;23.20;98.80
6666;DHT22;3369;49.906;8.598;2022-08-19T07:50:56;23.30;98.70
6666;DHT22;3369;49.906;8.598;2022-08-19T07:53:24;23.50;98.50
6666;DHT22;3369;49.906;8.598;2022-08-19T07:55:50;23.50;98.10
6666;DHT22;3369;49.906;8.598;2022-08-19T07:58:18;23.70;97.80
6666;DHT22;3369;49.906;8.598;2022-08-19T08:00:47;23.80;97.30
6666;DHT22;3369;49.906;8.598;2022-08-19T08:03:14;23.80;96.80
6666;DHT22;3369;49.906;8.598;2022-08-19T08:05:41;24.00;97.00
6666;DHT22;3369;49.906;8.598;2022-08-19T08:08:25;24.10;96.60
6666;DHT22;3369;49.906;8.598;2022-08-19T08:11:10;24.20;96.30
6666;DHT22;3369;49.906;8.598;2022-08-19T08:13:36;24.40;96.50
6666;DHT22;3369;49.906;8.598;2022-08-19T08:16:03;24.60;96.20
6666;DHT22;3369;49.906;8.598;2022-08-19T08:18:29;24.70;96.20
6666;DHT22;3369;49.906;8.598;2022-08-19T08:20:56;24.80;95.60
6666;DHT22;3369;49.906;8.598;2022-08-19T08:23:23;24.80;95.10
6666;DHT22;3369;49.906;8.598;2022-08-19T08:25:51;24.70;94.80
6666;DHT22;3369;49.906;8.598;2022-08-19T08:28:17;24.60;95.00
6666;DHT22;3369;49.906;8.598;2022-08-19T08:30:45;24.60;95.10
6666;DHT22;3369;49.906;8.598;2022-08-19T08:33:13;24.50;95.20
6666;DHT22;3369;49.906;8.598;2022-08-19T08:35:40;24.50;95.20
6666;DHT22;3369;49.906;8.598;2022-08-19T08:38:07;24.40;94.50
6666;DHT22;3369;49.906;8.598;2022-08-19T08:40:46;24.40;94.50
6666;DHT22;3369;49.906;8.598;2022-08-19T08:46:13;24.40;94.50
6666;DHT22;3369;49.906;8.598;2022-08-19T08:51:28;24.50;94.70
6666;DHT22;3369;49.906;8.598;2022-08-19T08:53:55;24.50;94.70
6666;DHT22;3369;49.906;8.598;2022-08-19T08:56:21;24.60;94.70
6666;DHT22;3369;49.906;8.598;2022-08-19T08:59:00;24.80;95.00
6666;DHT22;3369;49.906;8.598;2022-08-19T09:01:27;25.00;94.30
6666;DHT22;3369;49.906;8.598;2022-08-19T09:03:53;25.20;93.50
6666;DHT22;3369;49.906;8.598;2022-08-19T09:12:23;25.70;91.90
6666;DHT22;3369;49.906;8.598;2022-08-19T09:17:25;25.90;91.50
6666;DHT22;3369;49.906;8.598;2022-08-19T09:20:29;25.90;91.20
6666;DHT22;3369;49.906;8.598;2022-08-19T09:22:54;25.80;91.20
6666;DHT22;3369;49.906;8.598;2022-08-19T09:25:21;25.80;91.40
6666;DHT22;3369;49.906;8.598;2022-08-19T09:27:48;25.90;91.40
6666;DHT22;3369;49.906;8.598;2022-08-19T09:30:17;26.10;91.10
6666;DHT22;3369;49.906;8.598;2022-08-19T09:32:44;26.10;90.70
6666;DHT22;3369;49.906;8.598;2022-08-19T09:35:11;26.20;89.70
6666;DHT22;3369;49.906;8.598;2022-08-19T09:37:38;26.10;89.50
6666;DHT22;3369;49.906;8.598;2022-08-19T09:40:04;26.00;89.80
6666;DHT22;3369;49.906;8.598;2022-08-19T09:42:30;25.90;90.20
6666;DHT22;3369;49.906;8.598;2022-08-19T09:44:56;25.80;90.50
6666;DHT22;3369;49.906;8.598;2022-08-19T09:47:22;25.80;90.60
6666;DHT22;3369;49.906;8.598;2022-08-19T09:49:47;25.80;90.70
6666;DHT22;3369;49.906;8.598;2022-08-19T09:52:16;25.80;90.80
6666;DHT22;3369;49.906;8.598;2022-08-19T09:54:41;25.90;91.20
6666;DHT22;3369;49.906;8.598;2022-08-19T09:57:07;26.10;91.10
6666;DHT22;3369;49.906;8.598;2022-08-19T09:59:33;26.30;90.50
6666;DHT22;3369;49.906;8.598;2022-08-19T10:01:59;26.40;90.50
6666;DHT22;3369;49.906;8.598;2022-08-19T10:04:25;26.60;90.20
6666;DHT22;3369;49.906;8.598;2022-08-19T10:07:10;26.80;88.40
6666;DHT22;3369;49.906;8.598;2022-08-19T10:09:36;26.90;87.20
6666;DHT22;3369;49.906;8.598;2022-08-19T10:12:04;27.10;86.90
6666;DHT22;3369;49.906;8.598;2022-08-19T10:14:30;27.30;86.80
6666;DHT22;3369;49.906;8.598;2022-08-19T10:16:57;27.40;86.70
6666;DHT22;3369;49.906;8.598;2022-08-19T10:19:23;27.60;85.80
6666;DHT22;3369;49.906;8.598;2022-08-19T10:21:48;27.70;85.50
6666;DHT22;3369;49.906;8.598;2022-08-19T10:24:14;27.80;84.40
6666;DHT22;3369;49.906;8.598;2022-08-19T10:26:40;27.90;84.40
6666;DHT22;3369;49.906;8.598;2022-08-19T10:29:12;27.80;84.50
6666;DHT22;3369;49.906;8.598;2022-08-19T10:31:41;27.80;82.90
6666;DHT22;3369;49.906;8.598;2022-08-19T10:34:07;27.70;82.80
6666;DHT22;3369;49.906;8.598;2022-08-19T10:36:36;27.50;83.20
6666;DHT22;3369;49.906;8.598;2022-08-19T10:39:07;27.40;83.10
6666;DHT22;3369;49.906;8.598;2022-08-19T10:41:36;27.40;83.70
6666;DHT22;3369;49.906;8.598;2022-08-19T10:44:08;27.50;82.60
6666;DHT22;3369;49.906;8.598;2022-08-19T10:46:40;27.50;80.30
6666;DHT22;3369;49.906;8.598;2022-08-19T10:49:08;27.50;80.50
6666;DHT22;3369;49.906;8.598;2022-08-19T10:51:34;27.60;80.40
6666;DHT22;3369;49.906;8.598;2022-08-19T10:54:19;27.80;79.80
6666;DHT22;3369;49.906;8.598;2022-08-19T10:56:45;27.90;79.40
6666;DHT22;3369;49.906;8.598;2022-08-19T10:59:23;27.80;78.90
6666;DHT22;3369;49.906;8.598;2022-08-19T11:01:50;27.70;77.50
6666;DHT22;3369;49.906;8.598;2022-08-19T11:04:18;27.60;77.00
6666;DHT22;3369;49.906;8.598;2022-08-19T11:06:47;27.60;76.90
6666;DHT22;3369;49.906;8.598;2022-08-19T11:09:19;27.70;76.60
6666;DHT22;3369;49.906;8.598;2022-08-19T11:11:45;27.80;76.40
6666;DHT22;3369;49.906;8.598;2022-08-19T11:14:15;27.90;77.10
6666;DHT22;3369;49.906;8.598;2022-08-19T11:16:42;28.00;78.00
6666;DHT22;3369;49.906;8.598;2022-08-19T11:19:09;28.10;76.40
6666;DHT22;3369;49.906;8.598;2022-08-19T11:21:38;28.20;75.40
6666;DHT22;3369;49.906;8.598;2022-08-19T11:24:08;28.30;75.80
6666;DHT22;3369;49.906;8.598;2022-08-19T11:26:34;28.40;75.70
6666;DHT22;3369;49.906;8.598;2022-08-19T11:29:01;28.50;72.30
6666;DHT22;3369;49.906;8.598;2022-08-19T11:31:30;28.50;73.00
6666;DHT22;3369;49.906;8.598;2022-08-19T11:33:58;28.40;73.00
6666;DHT22;3369;49.906;8.598;2022-08-19T11:36:25;28.30;74.00
6666;DHT22;3369;49.906;8.598;2022-08-19T11:38:52;28.40;73.60
6666;DHT22;3369;49.906;8.598;2022-08-19T11:41:20;28.50;73.00
6666;DHT22;3369;49.906;8.598;2022-08-19T11:43:46;28.50;70.70
6666;DHT22;3369;49.906;8.598;2022-08-19T11:46:13;28.60;71.00
6666;DHT22;3369;49.906;8.598;2022-08-19T11:48:39;28.70;70.60
6666;DHT22;3369;49.906;8.598;2022-08-19T11:51:12;28.70;71.00
6666;DHT22;3369;49.906;8.598;2022-08-19T11:53:38;28.80;70.50
6666;DHT22;3369;49.906;8.598;2022-08-19T11:56:06;28.90;69.40
6666;DHT22;3369;49.906;8.598;2022-08-19T11:58:32;28.90;71.10
6666;DHT22;3369;49.906;8.598;2022-08-19T12:00:59;28.90;70.50
6666;DHT22;3369;49.906;8.598;2022-08-19T12:03:25;28.80;70.50
6666;DHT22;3369;49.906;8.598;2022-08-19T12:05:51;28.70;70.80
6666;DHT22;3369;49.906;8.598;2022-08-19T12:08:17;28.70;70.50
6666;DHT22;3369;49.906;8.598;2022-08-19T12:10:44;28.60;69.40
6666;DHT22;3369;49.906;8.598;2022-08-19T12:13:11;28.60;68.40
6666;DHT22;3369;49.906;8.598;2022-08-19T12:15:41;28.70;66.80
6666;DHT22;3369;49.906;8.598;2022-08-19T12:18:08;28.80;66.90
6666;DHT22;3369;49.906;8.598;2022-08-19T12:20:38;28.90;67.10
6666;DHT22;3369;49.906;8.598;2022-08-19T12:23:06;29.00;66.80
6666;DHT22;3369;49.906;8.598;2022-08-19T12:25:32;29.10;66.40
6666;DHT22;3369;49.906;8.598;2022-08-19T12:27:58;29.10;65.90
6666;DHT22;3369;49.906;8.598;2022-08-19T12:30:24;29.00;66.80
6666;DHT22;3369;49.906;8.598;2022-08-19T12:32:50;28.80;65.90
6666;DHT22;3369;49.906;8.598;2022-08-19T12:35:17;28.70;65.70
6666;DHT22;3369;49.906;8.598;2022-08-19T12:37:46;28.90;65.10
6666;DHT22;3369;49.906;8.598;2022-08-19T12:40:12;29.00;64.90
6666;DHT22;3369;49.906;8.598;2022-08-19T12:42:39;29.20;64.50
6666;DHT22;3369;49.906;8.598;2022-08-19T12:45:09;29.30;62.00
6666;DHT22;3369;49.906;8.598;2022-08-19T12:47:35;29.40;61.90
6666;DHT22;3369;49.906;8.598;2022-08-19T12:50:01;29.50;62.70
6666;DHT22;3369;49.906;8.598;2022-08-19T12:52:27;29.70;63.40
6666;DHT22;3369;49.906;8.598;2022-08-19T12:54:54;29.70;63.30
6666;DHT22;3369;49.906;8.598;2022-08-19T12:57:22;29.80;59.80
6666;DHT22;3369;49.906;8.598;2022-08-19T12:59:52;29.70;59.90
6666;DHT22;3369;49.906;8.598;2022-08-19T13:02:18;29.50;60.10
6666;DHT22;3369;49.906;8.598;2022-08-19T13:04:45;29.50;60.30
6666;DHT22;3369;49.906;8.598;2022-08-19T13:07:10;29.60;60.90
6666;DHT22;3369;49.906;8.598;2022-08-19T13:09:36;29.70;59.90
6666;DHT22;3369;49.906;8.598;2022-08-19T13:12:03;29.80;60.20
6666;DHT22;3369;49.906;8.598;2022-08-19T13:14:33;30.00;59.40
6666;DHT22;3369;49.906;8.598;2022-08-19T13:16:58;30.10;60.10
6666;DHT22;3369;49.906;8.598;2022-08-19T13:19:24;30.20;60.00
6666;DHT22;3369;49.906;8.598;2022-08-19T13:21:50;30.40;60.10
6666;DHT22;3369;49.906;8.598;2022-08-19T13:24:17;30.50;59.20
6666;DHT22;3369;49.906;8.598;2022-08-19T13:26:42;30.30;58.30
6666;DHT22;3369;49.906;8.598;2022-08-19T13:29:08;30.00;58.40
6666;DHT22;3369;49.906;8.598;2022-08-19T13:31:52;29.80;58.60
6666;DHT22;3369;49.906;8.598;2022-08-19T13:34:36;29.70;58.90
6666;DHT22;3369;49.906;8.598;2022-08-19T13:37:03;29.70;58.70
6666;DHT22;3369;49.906;8.598;2022-08-19T13:39:33;29.70;57.90
6666;DHT22;3369;49.906;8.598;2022-08-19T13:42:00;29.70;58.40
6666;DHT22;3369;49.906;8.598;2022-08-19T13:44:26;29.80;58.70
6666;DHT22;3369;49.906;8.598;2022-08-19T13:46:55;29.80;58.80
6666;DHT22;3369;49.906;8.598;2022-08-19T13:49:28;30.00;57.70
6666;DHT22;3369;49.906;8.598;2022-08-19T13:51:54;30.10;57.30
6666;DHT22;3369;49.906;8.598;2022-08-19T14:12:59;30.30;55.70
6666;DHT22;3369;49.906;8.598;2022-08-19T14:15:27;30.40;55.10
6666;DHT22;3369;49.906;8.598;2022-08-19T14:17:53;30.40;55.30
6666;DHT22;3369;49.906;8.598;2022-08-19T14:20:19;30.40;54.70
6666;DHT22;3369;49.906;8.598;2022-08-19T14:22:46;30.40;55.00
6666;DHT22;3369;49.906;8.598;2022-08-19T14:25:16;30.30;55.40
6666;DHT22;3369;49.906;8.598;2022-08-19T14:27:42;30.20;54.80
6666;DHT22;3369;49.906;8.598;2022-08-19T14:30:13;30.10;55.10
6666;DHT22;3369;49.906;8.598;2022-08-19T14:32:40;30.00;54.60
6666;DHT22;3369;49.906;8.598;2022-08-19T14:35:10;29.90;54.30
6666;DHT22;3369;49.906;8.598;2022-08-19T14:37:38;29.80;54.90
6666;DHT22;3369;49.906;8.598;2022-08-19T14:40:04;29.80;55.20
6666;DHT22;3369;49.906;8.598;2022-08-19T14:42:30;29.80;55.70
6666;DHT22;3369;49.906;8.598;2022-08-19T14:44:59;29.80;54.90
6666;DHT22;3369;49.906;8.598;2022-08-19T14:47:26;29.90;55.70
6666;DHT22;3369;49.906;8.598;2022-08-19T14:49:52;30.00;55.70
6666;DHT22;3369;49.906;8.598;2022-08-19T14:52:17;30.00;54.90
6666;DHT22;3369;49.906;8.598;2022-08-19T14:54:43;30.00;54.80
6666;DHT22;3369;49.906;8.598;2022-08-19T14:57:12;29.80;54.30
6666;DHT22;3369;49.906;8.598;2022-08-19T14:59:41;29.80;55.00
6666;DHT22;3369;49.906;8.598;2022-08-19T15:02:07;29.60;54.40
6666;DHT22;3369;49.906;8.598;2022-08-19T15:04:32;29.50;54.20
6666;DHT22;3369;49.906;8.598;2022-08-19T15:06:58;29.50;54.90
6666;DHT22;3369;49.906;8.598;2022-08-19T15:09:24;29.50;54.50
6666;DHT22;3369;49.906;8.598;2022-08-19T15:11:50;29.50;54.90
6666;DHT22;3369;49.906;8.598;2022-08-19T15:14:16;29.60;55.30
6666;DHT22;3369;49.906;8.598;2022-08-19T15:16:42;29.60;56.00
6666;DHT22;3369;49.906;8.598;2022-08-19T15:19:09;29.60;54.90
6666;DHT22;3369;49.906;8.598;2022-08-19T15:21:35;29.60;54.20
6666;DHT22;3369;49.906;8.598;2022-08-19T15:24:02;29.50;54.30
6666;DHT22;3369;49.906;8.598;2022-08-19T15:26:28;29.50;54.60
6666;DHT22;3369;49.906;8.598;2022-08-19T15:28:57;29.40;53.90
6666;DHT22;3369;49.906;8.598;2022-08-19T15:31:25;29.30;53.70
6666;DHT22;3369;49.906;8.598;2022-08-19T15:33:52;29.30;54.20
6666;DHT22;3369;49.906;8.598;2022-08-19T15:36:20;29.20;55.00
6666;DHT22;3369;49.906;8.598;2022-08-19T15:38:46;29.20;55.00
6666;DHT22;3369;49.906;8.598;2022-08-19T15:41:20;29.20;54.30
6666;DHT22;3369;49.906;8.598;2022-08-19T15:43:52;29.20;55.20
6666;DHT22;3369;49.906;8.598;2022-08-19T15:46:21;29.20;54.70
6666;DHT22;3369;49.906;8.598;2022-08-19T15:48:48;29.20;53.70
6666;DHT22;3369;49.906;8.598;2022-08-19T15:51:14;29.20;54.00
6666;DHT22;3369;49.906;8.598;2022-08-19T15:53:41;29.30;54.40
6666;DHT22;3369;49.906;8.598;2022-08-19T15:56:07;29.30;54.50
6666;DHT22;3369;49.906;8.598;2022-08-19T15:58:33;29.30;53.70
6666;DHT22;3369;49.906;8.598;2022-08-19T16:01:17;29.30;53.80
6666;DHT22;3369;49.906;8.598;2022-08-19T16:04:03;29.30;54.00
6666;DHT22;3369;49.906;8.598;2022-08-19T16:06:57;29.30;54.20
6666;DHT22;3369;49.906;8.598;2022-08-19T16:09:25;29.30;54.40
6666;DHT22;3369;49.906;8.598;2022-08-19T16:11:55;29.30;54.70
6666;DHT22;3369;49.906;8.598;2022-08-19T16:14:21;29.20;54.90
6666;DHT22;3369;49.906;8.598;2022-08-19T16:16:47;29.20;55.00
6666;DHT22;3369;49.906;8.598;2022-08-19T16:19:15;29.20;55.20
6666;DHT22;3369;49.906;8.598;2022-08-19T16:21:46;29.20;54.90
6666;DHT22;3369;49.906;8.598;2022-08-19T16:24:14;29.10;54.50
6666;DHT22;3369;49.906;8.598;2022-08-19T16:26:41;29.10;54.90
6666;DHT22;3369;49.906;8.598;2022-08-19T16:29:08;29.10;55.10
6666;DHT22;3369;49.906;8.598;2022-08-19T16:31:35;29.10;54.70
6666;DHT22;3369;49.906;8.598;2022-08-19T16:34:01;29.00;54.50
6666;DHT22;3369;49.906;8.598;2022-08-19T16:36:27;29.00;54.30
6666;DHT22;3369;49.906;8.598;2022-08-19T16:38:53;28.90;54.20
6666;DHT22;3369;49.906;8.598;2022-08-19T16:41:20;28.90;54.30
6666;DHT22;3369;49.906;8.598;2022-08-19T16:43:47;28.80;54.50
6666;DHT22;3369;49.906;8.598;2022-08-19T16:46:18;28.80;54.90
6666;DHT22;3369;49.906;8.598;2022-08-19T16:48:43;28.80;54.90
6666;DHT22;3369;49.906;8.598;2022-08-19T16:51:11;28.80;55.40
6666;DHT22;3369;49.906;8.598;2022-08-19T16:53:39;28.80;55.40
6666;DHT22;3369;49.906;8.598;2022-08-19T16:56:05;28.80;55.40
6666;DHT22;3369;49.906;8.598;2022-08-19T16:58:31;28.80;55.40
6666;DHT22;3369;49.906;8.598;2022-08-19T17:01:00;28.70;55.40
6666;DHT22;3369;49.906;8.598;2022-08-19T17:03:27;28.70;55.50